Time;durP1;ratioP1;P1;durP2;ratioP2;P2;SDS_P1;SDS_P2;PMS_P1;PMS_P2;Temp;Humidity;BMP_temperature;BMP_pressure;BME280_temperature;BME280_humidity;BME280_pressure;Samples;Min_cycle;Max_cycle;Signal;HPM_P1;HPM_P2
2021/01/18 00:00:37;;;;;;;24.35;12.00;;;;;;;3.68;75.37;99644.72;5094257;28;20383;-65
2021/01/18 00:03:05;;;;;;;24.63;12.23;;;;;;;3.66;75.29;99643.19;5094267;28;20412;-65
2021/01/18 00:05:35;;;;;;;24.50;12.45;;;;;;;3.64;75.32;99645.94;5093887;28;20444;-65
2021/01/18 00:08:01;;;;;;;25.33;12.57;;;;;;;3.62;75.16;99639.16;5094042;28;20054;-65
2021/01/18 00:10:28;;;;;;;23.38;12.75;;;;;;;3.66;75.21;99646.63;5094063;28;20040;-65
2021/01/18 00:12:56;;;;;;;22.27;12.57;;;;;;;3.58;75.03;99643.81;5092737;28;20530;-65
2021/01/18 00:15:24;;;;;;;20.45;12.32;;;;;;;3.60;74.98;99646.31;5094183;28;20035;-65
2021/01/18 00:17:52;;;;;;;20.67;11.93;;;;;;;3.61;75.13;99630.50;5094393;28;20074;-65
2021/01/18 00:20:22;;;;;;;20.60;11.57;;;;;;;3.60;75.06;99631.47;5094344;28;20053;-65
2021/01/18 00:22:49;;;;;;;20.70;11.20;;;;;;;3.47;74.72;99631.66;5093829;28;20050;-65
2021/01/18 00:25:19;;;;;;;19.98;11.02;;;;;;;3.45;75.00;99638.78;5093490;28;20055;-65
2021/01/18 00:27:47;;;;;;;23.20;12.15;;;;;;;3.37;74.83;99629.91;5093977;28;20069;-65
2021/01/18 00:30:16;;;;;;;21.10;10.95;;;;;;;3.31;75.09;99623.41;5092360;28;20067;-65
2021/01/18 00:32:43;;;;;;;25.05;11.20;;;;;;;3.34;75.06;99632.78;5093699;28;20040;-65
2021/01/18 00:35:13;;;;;;;27.27;11.85;;;;;;;3.35;75.22;99624.81;5091994;28;20076;-65
2021/01/18 00:37:41;;;;;;;22.98;10.65;;;;;;;3.30;75.12;99623.53;5093438;28;20059;-65
2021/01/18 00:40:10;;;;;;;19.52;10.52;;;;;;;3.22;75.19;99627.63;5093477;28;20040;-65
2021/01/18 00:42:39;;;;;;;22.88;10.50;;;;;;;3.18;75.26;99628.81;5093652;28;20046;-65
2021/01/18 00:45:07;;;;;;;19.67;11.00;;;;;;;3.15;75.29;99634.28;5092017;28;20487;-65
2021/01/18 00:47:39;;;;;;;21.45;11.48;;;;;;;3.09;75.33;99632.16;5092255;28;20044;-65
2021/01/18 00:50:07;;;;;;;19.65;10.50;;;;;;;3.10;75.32;99644.31;5093454;28;20127;-65
2021/01/18 00:52:34;;;;;;;17.42;10.40;;;;;;;3.17;75.28;99639.38;5091977;28;20535;-65
2021/01/18 00:55:01;;;;;;;16.45;9.48;;;;;;;3.24;75.30;99640.56;5093021;28;20097;-65
2021/01/18 00:57:43;;;;;;;17.90;9.95;;;;;;;3.17;75.25;99637.59;5092076;28;20139;-65
2021/01/18 01:00:13;;;;;;;19.33;10.45;;;;;;;3.15;75.06;99639.53;5092680;28;20543;-65
2021/01/18 01:02:42;;;;;;;16.38;9.48;;;;;;;3.14;75.03;99639.63;5091872;28;20043;-65
2021/01/18 01:05:12;;;;;;;19.60;9.38;;;;;;;3.11;75.13;99639.91;5091560;28;20082;-65
2021/01/18 01:07:40;;;;;;;17.45;9.68;;;;;;;3.09;75.01;99641.78;5093041;28;20394;-65
2021/01/18 01:10:08;;;;;;;14.82;8.65;;;;;;;3.03;75.19;99642.31;5091917;28;20044;-65
2021/01/18 01:12:34;;;;;;;18.23;9.73;;;;;;;2.94;75.25;99649.94;5093019;28;20036;-65
2021/01/18 01:15:03;;;;;;;24.90;9.98;;;;;;;2.96;75.25;99634.94;5092643;28;20046;-65
2021/01/18 01:17:30;;;;;;;16.77;8.95;;;;;;;2.97;75.38;99648.84;5092735;28;20052;-65
2021/01/18 01:19:57;;;;;;;21.75;9.10;;;;;;;3.00;75.20;99647.75;5091635;28;20120;-65
2021/01/18 01:22:23;;;;;;;20.42;8.60;;;;;;;3.03;75.28;99642.31;5091941;28;20044;-65
2021/01/18 01:24:50;;;;;;;16.17;9.13;;;;;;;3.07;75.18;99639.31;5092605;28;20051;-65
2021/01/18 01:27:17;;;;;;;16.52;8.45;;;;;;;3.07;75.10;99641.09;5092766;28;20073;-65
2021/01/18 01:29:43;;;;;;;15.70;7.97;;;;;;;3.09;75.16;99641.78;5092868;28;20040;-65
2021/01/18 01:32:11;;;;;;;15.02;8.23;;;;;;;3.11;74.98;99651.16;5092564;28;20490;-65
2021/01/18 01:34:37;;;;;;;23.10;9.82;;;;;;;3.06;74.98;99642.03;5092781;28;20040;-65
2021/01/18 01:37:04;;;;;;;20.75;9.43;;;;;;;3.03;75.20;99640.50;5092785;28;20383;-65
2021/01/18 01:39:32;;;;;;;16.73;9.00;;;;;;;3.04;75.23;99647.38;5092773;28;20039;-65
2021/01/18 01:41:59;;;;;;;19.52;10.00;;;;;;;3.00;75.19;99648.59;5092683;28;20043;-65
2021/01/18 01:44:25;;;;;;;15.07;8.32;;;;;;;3.01;75.10;99644.19;5091062;28;20098;-65
2021/01/18 01:46:52;;;;;;;16.30;8.57;;;;;;;3.00;75.20;99653.81;5090974;28;20056;-65
2021/01/18 01:49:20;;;;;;;17.45;8.00;;;;;;;2.97;75.29;99649.66;5090978;28;20478;-65
2021/01/18 01:51:49;;;;;;;13.00;8.05;;;;;;;3.01;75.19;99652.03;5090866;28;20379;-64
2021/01/18 01:54:16;;;;;;;13.18;7.75;;;;;;;2.97;75.05;99665.31;5092102;28;20040;-65
2021/01/18 01:56:45;;;;;;;16.52;8.93;;;;;;;3.00;75.14;99663.44;5091297;28;20109;-65
2021/01/18 01:59:12;;;;;;;18.02;8.27;;;;;;;3.00;75.25;99661.66;5092363;28;20052;-65
2021/01/18 02:01:40;;;;;;;13.88;7.85;;;;;;;2.98;75.09;99661.78;5092166;28;20043;-65
2021/01/18 02:04:10;;;;;;;15.10;7.78;;;;;;;2.97;75.05;99661.88;5092221;28;20032;-65
2021/01/18 02:06:37;;;;;;;15.75;7.57;;;;;;;2.97;75.17;99667.94;5092058;28;20043;-65
2021/01/18 02:09:04;;;;;;;16.90;7.97;;;;;;;2.98;75.11;99664.41;5092333;28;20048;-65
2021/01/18 02:11:31;;;;;;;17.40;8.15;;;;;;;3.02;75.05;99666.75;5090097;28;20067;-65
2021/01/18 02:14:19;;;;;;;15.05;9.18;;;;;;;3.04;75.14;99675.31;5090820;28;20051;-65
2021/01/18 02:16:51;;;;;;;16.50;8.57;;;;;;;2.99;75.14;99675.66;5092304;28;20467;-65
2021/01/18 02:19:46;;;;;;;16.48;8.20;;;;;;;2.92;75.20;99674.50;5092129;28;20044;-65
2021/01/18 02:23:02;;;;;;;18.17;8.80;;;;;;;2.85;75.47;99674.13;5092270;28;20048;-65
2021/01/18 02:25:36;;;;;;;16.08;8.80;;;;;;;2.86;75.47;99675.81;5091843;28;20094;-65
2021/01/18 02:28:20;;;;;;;15.45;8.15;;;;;;;2.90;75.63;99679.84;5092157;28;20065;-65
2021/01/18 02:31:28;;;;;;;16.53;8.50;;;;;;;2.96;75.44;99683.75;5092079;28;20127;-65
2021/01/18 02:34:10;;;;;;;21.88;9.55;;;;;;;2.93;75.45;99683.97;5092205;28;20485;-65
2021/01/18 02:36:47;;;;;;;18.88;8.68;;;;;;;2.92;75.64;99687.56;5091737;28;20052;-64
2021/01/18 02:39:21;;;;;;;15.90;8.63;;;;;;;2.95;75.41;99692.53;5091953;28;20048;-65
2021/01/18 02:41:54;;;;;;;19.05;8.07;;;;;;;3.03;75.56;99689.31;5091926;28;20048;-65
2021/01/18 02:44:23;;;;;;;17.63;8.00;;;;;;;3.03;75.13;99679.69;5091964;28;20059;-65
2021/01/18 02:46:51;;;;;;;16.08;7.45;;;;;;;3.00;75.14;99692.16;5091810;28;20047;-65
2021/01/18 02:49:19;;;;;;;17.85;8.95;;;;;;;3.06;75.35;99689.06;5091860;28;20040;-64
2021/01/18 02:51:52;;;;;;;18.55;8.50;;;;;;;3.07;75.16;99688.94;5090574;28;20044;-64
2021/01/18 02:54:19;;;;;;;14.60;8.30;;;;;;;3.07;75.09;99683.72;5091873;28;20648;-65
2021/01/18 02:56:50;;;;;;;19.80;8.70;;;;;;;3.06;75.09;99691.66;5091959;28;20048;-65
2021/01/18 02:59:18;;;;;;;15.90;8.48;;;;;;;3.11;74.78;99687.75;5092331;28;20082;-65
2021/01/18 03:02:07;;;;;;;22.90;8.48;;;;;;;3.15;74.91;99691.78;5092840;28;20037;-65
2021/01/18 03:04:47;;;;;;;18.42;7.72;;;;;;;3.16;74.83;99693.44;5091343;28;20435;-65
2021/01/18 03:07:20;;;;;;;20.40;8.40;;;;;;;3.19;74.75;99697.59;5091508;28;20169;-65
2021/01/18 03:09:53;;;;;;;14.90;7.25;;;;;;;3.22;74.66;99692.09;5091594;28;20486;-65
2021/01/18 03:12:28;;;;;;;16.75;8.40;;;;;;;3.15;74.36;99694.38;5091650;28;20040;-65
2021/01/18 03:14:55;;;;;;;14.93;8.02;;;;;;;3.15;74.56;99694.38;5091505;28;20040;-65
2021/01/18 03:17:27;;;;;;;16.02;7.45;;;;;;;3.07;74.52;99694.16;5091282;28;20044;-65
2021/01/18 03:19:54;;;;;;;20.15;8.02;;;;;;;3.10;74.42;99698.31;5091393;28;20079;-65
2021/01/18 03:22:23;;;;;;;13.23;7.75;;;;;;;3.18;74.36;99698.53;5092665;28;20120;-65
2021/01/18 03:24:52;;;;;;;13.32;6.80;;;;;;;3.17;74.28;99704.69;5094931;28;20115;-65
2021/01/18 03:27:19;;;;;;;13.38;6.68;;;;;;;3.17;74.23;99702.91;5095110;28;20127;-65
2021/01/18 03:29:49;;;;;;;11.23;7.65;;;;;;;3.09;74.29;99697.47;5094934;28;20407;-65
2021/01/18 03:32:16;;;;;;;13.73;6.85;;;;;;;3.06;74.38;99694.28;5095255;28;20075;-65
2021/01/18 03:34:43;;;;;;;13.88;6.78;;;;;;;3.01;74.53;99691.22;5093608;28;20048;-65
2021/01/18 03:37:10;;;;;;;14.25;6.70;;;;;;;2.99;74.34;99691.34;5094847;28;20040;-65
2021/01/18 03:39:37;;;;;;;12.48;7.20;;;;;;;3.07;74.56;99696.78;5094952;28;20054;-65
2021/01/18 03:42:04;;;;;;;12.13;6.35;;;;;;;3.10;74.31;99696.53;5094712;28;20047;-65
2021/01/18 03:44:32;;;;;;;12.98;7.70;;;;;;;3.09;74.29;99692.25;5094422;28;20054;-65
2021/01/18 03:46:59;;;;;;;10.57;7.00;;;;;;;3.04;74.17;99693.59;5094519;28;20066;-65
2021/01/18 03:49:25;;;;;;;12.38;6.90;;;;;;;3.10;74.33;99696.53;5093254;28;20523;-65
2021/01/18 03:51:52;;;;;;;10.63;6.68;;;;;;;3.09;74.20;99688.81;5093198;28;20039;-65
2021/01/18 03:54:19;;;;;;;15.60;7.25;;;;;;;3.14;74.08;99684.91;5094117;28;20055;-65
2021/01/18 03:56:46;;;;;;;9.55;6.32;;;;;;;3.13;74.06;99677.16;5094407;28;20489;-65
2021/01/18 03:59:13;;;;;;;14.23;6.45;;;;;;;3.17;73.92;99684.63;5094285;28;20040;-65
2021/01/18 04:01:40;;;;;;;11.70;6.13;;;;;;;3.13;73.83;99675.38;5094254;28;20071;-65
2021/01/18 04:04:07;;;;;;;12.32;6.68;;;;;;;3.10;73.74;99678.25;5094301;28;20482;-65
2021/01/18 04:06:35;;;;;;;14.98;6.90;;;;;;;3.12;73.75;99672.91;5093939;28;20055;-65
2021/01/18 04:09:02;;;;;;;13.38;7.10;;;;;;;3.20;73.81;99680.94;5094171;28;20417;-65
2021/01/18 04:11:29;;;;;;;14.45;7.15;;;;;;;3.17;74.05;99682.00;5094115;28;20050;-65
2021/01/18 04:13:56;;;;;;;10.05;6.15;;;;;;;3.08;73.69;99680.16;5094109;28;20048;-65
2021/01/18 04:16:23;;;;;;;11.32;6.75;;;;;;;3.14;73.79;99673.59;5093745;28;20048;-65
2021/01/18 04:18:51;;;;;;;17.55;6.97;;;;;;;3.14;73.62;99681.44;5093985;28;20385;-65
2021/01/18 04:21:18;;;;;;;17.52;7.20;;;;;;;3.19;73.74;99677.50;5094635;28;20036;-65
2021/01/18 04:23:46;;;;;;;11.38;6.72;;;;;;;3.25;73.56;99686.63;5094410;28;20044;-65
2021/01/18 04:26:13;;;;;;;15.35;7.28;;;;;;;3.32;73.39;99681.75;5094038;28;20048;-65
2021/01/18 04:28:40;;;;;;;11.90;7.05;;;;;;;3.27;73.31;99687.34;5094236;28;20063;-65
2021/01/18 04:31:08;;;;;;;14.27;7.68;;;;;;;3.17;73.61;99686.41;5094094;28;20043;-65
2021/01/18 04:33:35;;;;;;;19.02;8.50;;;;;;;3.19;73.75;99680.13;5093130;28;20044;-65
2021/01/18 04:36:01;;;;;;;15.95;7.85;;;;;;;3.23;73.63;99688.56;5093763;28;20048;-65
2021/01/18 04:38:28;;;;;;;12.25;8.13;;;;;;;3.17;73.76;99692.47;5094080;28;20440;-65
2021/01/18 04:40:55;;;;;;;16.40;9.18;;;;;;;3.19;73.86;99690.56;5094340;28;20040;-65
2021/01/18 04:43:22;;;;;;;14.40;8.18;;;;;;;3.22;73.96;99689.47;5094056;28;20047;-65
2021/01/18 04:45:49;;;;;;;18.75;9.18;;;;;;;3.21;73.93;99696.50;5094646;28;20048;-65
2021/01/18 04:48:17;;;;;;;13.00;7.15;;;;;;;3.21;73.71;99700.88;5099604;28;20062;-65
2021/01/18 04:50:44;;;;;;;14.95;6.93;;;;;;;3.17;73.61;99689.84;5094975;28;20043;-65
2021/01/18 04:53:15;;;;;;;12.80;6.95;;;;;;;3.19;73.50;99698.41;5093769;28;20048;-65
2021/01/18 04:56:10;;;;;;;11.10;7.30;;;;;;;3.20;73.33;99694.84;5093803;28;20044;-65
2021/01/18 04:58:38;;;;;;;16.33;7.88;;;;;;;3.12;73.32;99702.47;5092605;28;20071;-65
2021/01/18 05:01:05;;;;;;;14.73;7.45;;;;;;;3.05;73.30;99697.84;5093653;28;20486;-65
2021/01/18 05:03:36;;;;;;;11.82;7.32;;;;;;;3.01;73.59;99693.81;5092275;28;20478;-65
2021/01/18 05:06:43;;;;;;;19.45;7.80;;;;;;;3.01;73.52;99691.22;5093407;28;20558;-65
2021/01/18 05:09:42;;;;;;;14.95;8.27;;;;;;;3.03;73.53;99691.94;5092367;28;20048;-65
2021/01/18 05:12:10;;;;;;;19.58;8.48;;;;;;;3.02;73.45;99695.47;5093569;28;20130;-65
2021/01/18 05:14:37;;;;;;;14.77;8.63;;;;;;;2.91;73.62;99701.56;5093181;28;20047;-65
2021/01/18 05:17:07;;;;;;;14.93;7.68;;;;;;;2.93;73.73;99703.09;5092380;28;20466;-65
2021/01/18 05:19:35;;;;;;;13.55;7.30;;;;;;;2.95;73.69;99711.66;5093426;28;20044;-66
2021/01/18 05:22:02;;;;;;;13.52;7.25;;;;;;;2.95;73.75;99709.03;5093176;28;20048;-65
2021/01/18 05:24:29;;;;;;;15.57;7.63;;;;;;;2.90;73.68;99713.81;5093032;28;20040;-67
2021/01/18 05:27:07;;;;;;;13.18;8.10;;;;;;;2.91;73.74;99712.84;5093671;28;20524;-64
2021/01/18 05:29:36;;;;;;;21.35;7.63;;;;;;;2.92;73.85;99713.66;5093226;28;20097;-65
2021/01/18 05:32:18;;;;;;;17.08;8.30;;;;;;;2.96;73.68;99712.47;5093163;28;20043;-64
2021/01/18 05:34:51;;;;;;;21.13;8.18;;;;;;;2.98;73.74;99715.81;5092668;28;20032;-67
2021/01/18 05:37:18;;;;;;;16.95;7.72;;;;;;;2.97;73.72;99717.56;5092820;28;20512;-67
2021/01/18 05:39:44;;;;;;;21.75;8.45;;;;;;;2.95;73.83;99716.88;5092929;28;20044;-67
2021/01/18 05:42:20;;;;;;;18.02;8.90;;;;;;;2.96;73.99;99717.69;5092707;28;20040;-67
2021/01/18 05:44:46;;;;;;;17.95;8.68;;;;;;;3.01;73.86;99714.72;5092328;28;20047;-67
2021/01/18 05:47:15;;;;;;;17.63;8.80;;;;;;;3.04;73.90;99710.09;5092736;28;20052;-64
2021/01/18 05:49:44;;;;;;;15.43;8.50;;;;;;;3.00;73.85;99719.13;5092707;28;20056;-65
2021/01/18 05:52:25;;;;;;;17.25;9.30;;;;;;;2.87;73.90;99714.03;5092835;28;20491;-65
2021/01/18 05:55:16;;;;;;;20.65;9.35;;;;;;;2.84;74.07;99716.88;5092343;28;20054;-65
2021/01/18 05:57:46;;;;;;;15.30;8.95;;;;;;;2.84;74.25;99716.06;5091377;28;20093;-65
2021/01/18 06:00:14;;;;;;;16.35;9.15;;;;;;;2.84;74.32;99719.50;5092428;28;20071;-65
2021/01/18 06:02:47;;;;;;;16.13;9.02;;;;;;;2.82;74.33;99721.41;5092466;28;20043;-66
2021/01/18 06:05:15;;;;;;;21.00;9.80;;;;;;;2.84;74.51;99718.66;5092194;28;20044;-66
2021/01/18 06:07:42;;;;;;;16.23;9.32;;;;;;;2.88;74.56;99717.47;5092484;28;20485;-65
2021/01/18 06:10:09;;;;;;;20.42;10.05;;;;;;;2.95;74.50;99716.06;5092294;28;20050;-65
2021/01/18 06:12:36;;;;;;;16.00;9.55;;;;;;;2.97;74.25;99711.50;5092439;28;20051;-65
2021/01/18 06:15:05;;;;;;;19.52;9.52;;;;;;;3.02;74.39;99716.38;5090779;28;20048;-65
2021/01/18 06:17:33;;;;;;;19.42;10.35;;;;;;;2.93;74.31;99725.78;5092242;28;20055;-66
2021/01/18 06:20:00;;;;;;;18.50;10.07;;;;;;;2.89;74.50;99729.56;5091200;28;20047;-66
2021/01/18 06:22:27;;;;;;;20.85;10.10;;;;;;;2.78;74.66;99737.44;5092313;28;20051;-65
2021/01/18 06:24:56;;;;;;;20.30;10.95;;;;;;;2.87;74.75;99736.72;5092085;28;20044;-65
2021/01/18 06:27:33;;;;;;;18.10;10.85;;;;;;;2.88;74.71;99733.16;5092399;28;20518;-65
2021/01/18 06:30:00;;;;;;;19.15;10.90;;;;;;;2.86;74.73;99735.06;5092545;28;20040;-65
2021/01/18 06:32:30;;;;;;;21.60;11.25;;;;;;;2.83;74.72;99740.53;5090994;28;20040;-66
2021/01/18 06:34:59;;;;;;;20.13;12.27;;;;;;;2.78;74.92;99735.66;5091778;28;20047;-66
2021/01/18 06:37:29;;;;;;;24.10;12.50;;;;;;;2.78;74.96;99746.09;5091917;28;20048;-66
2021/01/18 06:39:58;;;;;;;23.92;12.57;;;;;;;2.78;74.92;99750.50;5092080;28;20044;-65
2021/01/18 06:42:25;;;;;;;23.42;13.60;;;;;;;2.81;74.86;99745.00;5091992;28;20036;-66
2021/01/18 06:44:52;;;;;;;29.10;13.60;;;;;;;2.83;75.02;99759.63;5091634;28;20044;-66
2021/01/18 06:47:30;;;;;;;20.58;12.77;;;;;;;2.85;74.92;99749.06;5094503;28;20044;-66
2021/01/18 06:50:01;;;;;;;21.45;13.07;;;;;;;2.75;75.08;99756.78;5094362;28;20493;-66
2021/01/18 06:52:30;;;;;;;29.48;13.07;;;;;;;2.73;75.22;99761.28;5094652;28;20565;-66
2021/01/18 06:55:04;;;;;;;22.63;13.15;;;;;;;2.80;75.37;99761.63;5094618;28;20050;-66
2021/01/18 06:58:04;;;;;;;27.13;14.00;;;;;;;2.70;75.58;99761.53;5094897;28;20054;-66
2021/01/18 07:00:31;;;;;;;25.85;14.95;;;;;;;2.69;75.61;99765.06;5098911;28;20066;-65
2021/01/18 07:02:59;;;;;;;28.10;14.60;;;;;;;2.80;75.53;99765.09;5098689;28;20498;-66
2021/01/18 07:05:42;;;;;;;29.40;14.05;;;;;;;2.90;75.43;99762.59;5096530;28;20127;-66
2021/01/18 07:08:13;;;;;;;29.40;13.93;;;;;;;2.90;75.38;99766.03;5097947;28;20115;-66
2021/01/18 07:10:44;;;;;;;25.45;13.55;;;;;;;2.82;75.34;99768.41;5098289;28;20040;-66
2021/01/18 07:13:11;;;;;;;21.17;13.60;;;;;;;2.76;75.51;99773.28;5096690;28;20135;-66
2021/01/18 07:15:45;;;;;;;30.73;13.80;;;;;;;2.83;75.67;99777.91;5096353;28;20413;-66
2021/01/18 07:18:13;;;;;;;28.58;14.88;;;;;;;2.77;75.59;99783.59;5096584;28;20895;-66
2021/01/18 07:20:42;;;;;;;28.33;14.48;;;;;;;2.81;75.63;99773.75;5098110;28;20044;-66
2021/01/18 07:23:27;;;;;;;27.98;14.10;;;;;;;2.88;75.55;99773.16;5098201;28;20036;-66
2021/01/18 07:26:46;;;;;;;27.52;14.50;;;;;;;2.88;75.69;99772.31;5097712;28;20158;-66
2021/01/18 07:29:15;;;;;;;26.08;15.05;;;;;;;2.92;75.72;99773.75;5097331;28;20436;-66
2021/01/18 07:31:47;;;;;;;29.38;15.15;;;;;;;2.90;75.77;99762.59;5096274;28;20048;-66
2021/01/18 07:34:15;;;;;;;24.83;14.98;;;;;;;2.93;75.46;99767.56;5097261;28;20128;-66
2021/01/18 07:36:43;;;;;;;23.25;14.50;;;;;;;2.96;75.63;99769.94;5097584;28;20066;-66
2021/01/18 07:39:23;;;;;;;28.95;14.57;;;;;;;3.01;75.64;99765.19;5096360;28;20056;-66
2021/01/18 07:41:50;;;;;;;24.35;15.18;;;;;;;2.98;75.75;99770.66;5098073;28;20036;-66
2021/01/18 07:44:38;;;;;;;24.98;13.95;;;;;;;2.94;75.83;99769.25;5097857;28;20101;-66
2021/01/18 07:47:06;;;;;;;27.30;14.98;;;;;;;2.97;75.71;99776.81;5095981;28;20409;-66
2021/01/18 07:49:38;;;;;;;24.65;14.57;;;;;;;2.96;75.63;99772.56;5097627;28;20482;-66
2021/01/18 07:52:16;;;;;;;26.02;15.70;;;;;;;3.01;75.62;99773.00;5097935;28;20126;-66
2021/01/18 07:54:44;;;;;;;29.23;14.90;;;;;;;2.94;75.72;99771.84;5096281;28;20522;-66
2021/01/18 07:57:24;;;;;;;28.17;16.83;;;;;;;2.98;75.85;99787.16;5097143;28;20044;-66
2021/01/18 08:00:26;;;;;;;34.10;17.40;;;;;;;3.00;75.85;99799.28;5096887;28;20046;-66
2021/01/18 08:02:54;;;;;;;29.83;16.02;;;;;;;2.94;75.73;99806.63;5096865;28;20432;-66
2021/01/18 08:05:26;;;;;;;24.33;15.80;;;;;;;2.92;75.95;99811.13;5096435;28;20510;-66
2021/01/18 08:08:07;;;;;;;27.85;15.20;;;;;;;2.92;76.08;99808.53;5096105;28;20067;-67
2021/01/18 08:10:54;;;;;;;32.15;15.82;;;;;;;2.92;76.04;99811.13;5095410;28;20143;-66
2021/01/18 08:13:48;;;;;;;25.00;16.02;;;;;;;2.84;76.34;99810.06;5094882;28;20127;-66
2021/01/18 08:16:18;;;;;;;31.88;17.17;;;;;;;2.88;76.38;99812.31;5091662;28;20066;-66
2021/01/18 08:18:50;;;;;;;26.63;16.27;;;;;;;2.90;76.45;99813.06;5095450;28;20064;-66
2021/01/18 08:21:47;;;;;;;23.90;15.30;;;;;;;2.89;76.50;99810.53;5095226;28;20123;-66
2021/01/18 08:24:52;;;;;;;31.73;16.00;;;;;;;2.95;76.52;99810.09;5094650;28;20055;-66
2021/01/18 08:27:38;;;;;;;24.90;14.68;;;;;;;3.00;76.43;99812.34;5094688;28;20137;-66
2021/01/18 08:30:20;;;;;;;27.33;14.38;;;;;;;3.02;76.40;99813.88;5083947;28;20064;-66
2021/01/18 08:32:55;;;;;;;30.42;15.75;;;;;;;3.06;76.22;99817.91;5093481;28;20403;-66
2021/01/18 08:35:28;;;;;;;25.65;14.70;;;;;;;3.12;76.29;99808.75;5094267;28;20420;-66
2021/01/18 08:38:00;;;;;;;24.38;14.40;;;;;;;3.12;76.17;99814.81;5094592;28;20036;-66
2021/01/18 08:40:33;;;;;;;24.27;15.07;;;;;;;3.10;76.03;99814.13;5094460;28;20044;-66
2021/01/18 08:42:59;;;;;;;26.88;15.10;;;;;;;3.13;76.12;99808.63;5094464;28;20494;-66
2021/01/18 08:45:28;;;;;;;25.92;15.73;;;;;;;3.20;76.10;99816.81;5092925;28;20048;-66
2021/01/18 08:47:58;;;;;;;28.67;15.70;;;;;;;3.21;75.74;99816.69;5093398;28;20052;-66
2021/01/18 08:50:27;;;;;;;32.28;19.25;;;;;;;3.23;75.84;99821.81;5094406;28;20071;-66
2021/01/18 08:52:55;;;;;;;28.52;17.95;;;;;;;3.22;75.91;99817.53;5094052;28;20048;-66
2021/01/18 08:55:52;;;;;;;25.30;14.82;;;;;;;3.31;75.77;99823.84;5094025;28;20061;-66
2021/01/18 08:58:42;;;;;;;27.23;15.10;;;;;;;3.31;75.83;99819.44;5094085;28;20040;-66
2021/01/18 09:01:15;;;;;;;24.80;14.70;;;;;;;3.33;75.72;99819.28;5094211;28;20055;-66
2021/01/18 09:03:44;;;;;;;24.57;15.03;;;;;;;3.38;75.55;99817.16;5092946;28;20056;-65
2021/01/18 09:06:11;;;;;;;18.92;13.10;;;;;;;3.38;75.62;99817.16;5093880;28;20493;-66
2021/01/18 09:08:42;;;;;;;17.85;13.02;;;;;;;3.36;75.51;99812.03;5094210;28;20048;-66
2021/01/18 09:11:10;;;;;;;21.63;13.73;;;;;;;3.41;75.52;99815.13;5092640;28;20052;-65
2021/01/18 09:13:38;;;;;;;21.40;14.45;;;;;;;3.47;75.34;99812.03;5093104;28;20051;-65
2021/01/18 09:16:07;;;;;;;23.35;14.23;;;;;;;3.51;75.21;99806.53;5093766;28;20118;-65
2021/01/18 09:18:34;;;;;;;21.27;14.55;;;;;;;3.54;75.10;99808.91;5094443;28;20051;-65
2021/01/18 09:21:06;;;;;;;20.48;14.23;;;;;;;3.52;75.09;99809.03;5094325;28;20119;-66
2021/01/18 09:23:33;;;;;;;22.85;13.85;;;;;;;3.50;75.09;99805.72;5095046;28;20048;-66
2021/01/18 09:26:02;;;;;;;24.55;15.85;;;;;;;3.55;74.91;99803.56;5094538;28;20039;-66
2021/01/18 09:28:29;;;;;;;18.92;13.80;;;;;;;3.56;75.21;99801.78;5094042;28;20044;-66
2021/01/18 09:30:56;;;;;;;20.02;13.75;;;;;;;3.52;74.92;99806.44;5093419;28;20051;-66
2021/01/18 09:33:28;;;;;;;23.23;14.23;;;;;;;3.51;74.89;99803.91;5093419;28;20059;-66
2021/01/18 09:35:54;;;;;;;19.10;13.25;;;;;;;3.48;75.13;99797.16;5092571;28;20567;-66
2021/01/18 09:38:22;;;;;;;24.73;16.25;;;;;;;3.44;75.01;99800.97;5092265;28;20044;-65
2021/01/18 09:40:49;;;;;;;21.73;13.80;;;;;;;3.40;75.33;99807.41;5093462;28;20050;-66
2021/01/18 09:43:19;;;;;;;23.27;14.35;;;;;;;3.42;75.20;99805.50;5094389;28;20040;-65
2021/01/18 09:45:53;;;;;;;20.52;13.60;;;;;;;3.51;75.29;99815.25;5093463;28;20040;-66
2021/01/18 09:48:24;;;;;;;22.63;13.93;;;;;;;3.49;75.36;99817.13;5092244;28;20055;-65
2021/01/18 09:50:58;;;;;;;30.00;13.02;;;;;;;3.53;74.93;99812.50;5092123;28;20143;-65
2021/01/18 09:53:27;;;;;;;27.13;15.57;;;;;;;3.54;75.13;99814.97;5096117;28;20093;-66
2021/01/18 09:55:55;;;;;;;22.42;13.48;;;;;;;3.50;75.01;99817.94;5097115;28;20044;-65
2021/01/18 09:58:32;;;;;;;25.65;13.60;;;;;;;3.51;75.00;99812.63;5097285;28;20052;-66
2021/01/18 10:01:00;;;;;;;26.40;14.55;;;;;;;3.46;75.11;99820.81;5095487;28;20040;-65
2021/01/18 10:03:30;;;;;;;26.52;15.45;;;;;;;3.56;75.14;99813.06;5093705;28;20069;-66
2021/01/18 10:06:04;;;;;;;28.45;14.15;;;;;;;3.69;75.06;99828.59;5093654;28;20069;-67
2021/01/18 10:08:33;;;;;;;23.65;14.13;;;;;;;3.82;74.86;99821.41;5093128;28;20072;-66
2021/01/18 10:11:00;;;;;;;21.10;13.60;;;;;;;3.86;74.35;99820.22;5092404;28;20047;-66
2021/01/18 10:13:28;;;;;;;25.48;14.60;;;;;;;3.86;74.25;99815.00;5092434;28;20047;-66
2021/01/18 10:16:05;;;;;;;20.05;12.60;;;;;;;3.75;74.15;99811.56;5092475;28;20418;-66
2021/01/18 10:18:34;;;;;;;22.20;14.07;;;;;;;3.67;74.45;99822.66;5092891;28;20105;-66
2021/01/18 10:21:02;;;;;;;25.92;14.75;;;;;;;3.69;74.31;99823.38;5092438;28;20044;-66
2021/01/18 10:23:34;;;;;;;20.23;14.80;;;;;;;3.66;74.57;99824.44;5092841;28;20051;-66
2021/01/18 10:26:21;;;;;;;29.00;15.00;;;;;;;3.63;74.56;99829.09;5092153;28;20043;-66
2021/01/18 10:28:54;;;;;;;29.42;16.50;;;;;;;3.60;74.56;99813.66;5092492;28;20126;-66
2021/01/18 10:31:22;;;;;;;32.78;19.27;;;;;;;3.63;74.65;99818.63;5091206;28;20045;-66
2021/01/18 10:34:11;;;;;;;30.15;17.88;;;;;;;3.62;74.54;99819.59;5090903;28;20119;-66
2021/01/18 10:36:40;;;;;;;23.58;13.45;;;;;;;3.61;74.75;99813.53;5092708;28;20070;-66
2021/01/18 10:39:08;;;;;;;20.98;13.52;;;;;;;3.59;74.75;99810.22;5092769;28;20047;-67
2021/01/18 10:41:35;;;;;;;23.50;13.95;;;;;;;3.62;74.81;99811.75;5091486;28;20514;-66
2021/01/18 10:44:14;;;;;;;19.38;12.82;;;;;;;3.61;74.58;99810.91;5092260;28;20048;-66
2021/01/18 10:46:49;;;;;;;30.90;15.40;;;;;;;3.78;74.74;99804.31;5092922;28;20078;-66
2021/01/18 10:49:24;;;;;;;35.50;14.48;;;;;;;3.94;74.39;99796.06;5092880;28;20040;-66
2021/01/18 10:52:05;;;;;;;21.42;13.70;;;;;;;4.01;74.22;99797.22;5093245;28;20486;-66
2021/01/18 10:54:33;;;;;;;21.13;12.65;;;;;;;4.07;73.97;99804.53;5092507;28;20251;-66
2021/01/18 10:57:01;;;;;;;21.13;12.25;;;;;;;4.09;73.77;99804.44;5092378;28;20048;-66
2021/01/18 10:59:28;;;;;;;25.20;12.25;;;;;;;4.18;73.42;99793.19;5092365;28;20063;-66
2021/01/18 11:02:01;;;;;;;19.95;12.13;;;;;;;4.19;73.37;99805.31;5092346;28;20047;-66
2021/01/18 11:04:28;;;;;;;16.48;10.57;;;;;;;4.17;73.42;99797.59;5091925;28;20044;-66
2021/01/18 11:06:56;;;;;;;19.02;10.70;;;;;;;4.21;73.03;99787.72;5091147;28;20166;-66
2021/01/18 11:09:33;;;;;;;19.50;10.90;;;;;;;4.19;73.02;99797.47;5092190;28;20040;-66
2021/01/18 11:12:01;;;;;;;22.33;11.88;;;;;;;4.19;73.26;99800.91;5092595;28;20054;-66
2021/01/18 11:14:29;;;;;;;16.80;10.65;;;;;;;4.16;73.06;99797.72;5091781;28;20044;-66
2021/01/18 11:17:00;;;;;;;15.45;9.75;;;;;;;4.14;73.09;99797.84;5091896;28;20044;-66
2021/01/18 11:19:27;;;;;;;15.25;10.13;;;;;;;4.17;73.25;99795.00;5092061;28;20040;-66
2021/01/18 11:21:54;;;;;;;22.25;10.63;;;;;;;4.24;73.08;99787.44;5090518;28;20048;-67
2021/01/18 11:24:20;;;;;;;16.60;10.35;;;;;;;4.24;73.06;99784.81;5090397;28;20565;-66
2021/01/18 11:26:49;;;;;;;18.70;10.20;;;;;;;4.27;72.82;99786.38;5091800;28;20451;-66
2021/01/18 11:29:16;;;;;;;16.48;9.65;;;;;;;4.27;72.72;99781.97;5091901;28;20051;-66
2021/01/18 11:31:43;;;;;;;14.52;9.77;;;;;;;4.34;72.87;99774.44;5092118;28;20035;-66
2021/01/18 11:34:10;;;;;;;16.58;9.07;;;;;;;4.33;72.86;99773.59;5090324;28;20486;-66
2021/01/18 11:36:37;;;;;;;17.30;9.73;;;;;;;4.40;72.71;99777.34;5091776;28;20040;-66
2021/01/18 11:39:05;;;;;;;15.88;9.48;;;;;;;4.30;72.75;99773.84;5090686;28;20486;-66
2021/01/18 11:41:34;;;;;;;17.42;8.88;;;;;;;4.36;72.47;99770.69;5091708;28;20440;-67
2021/01/18 11:44:02;;;;;;;22.52;11.25;;;;;;;4.50;72.61;99768.72;5093838;28;20051;-66
2021/01/18 11:46:28;;;;;;;22.67;9.27;;;;;;;4.51;72.28;99762.53;5095664;28;20036;-66
2021/01/18 11:48:55;;;;;;;28.92;14.45;;;;;;;4.42;72.21;99772.00;5095448;28;20486;-66